sensor_id;sensor_type;location;lat;lon;timestamp;pressure;altitude;pressure_sealevel;temperature;humidity
35647;BME280;28680;45.642;13.756;2023-06-10T00:02:20;100824.03;;;23.21;100.00
35647;BME280;28680;45.642;13.756;2023-06-10T00:04:45;100819.53;;;23.22;100.00
35647;BME280;28680;45.642;13.756;2023-06-10T00:07:12;100818.69;;;23.21;100.00
35647;BME280;28680;45.642;13.756;2023-06-10T00:09:38;100821.16;;;23.23;100.00
35647;BME280;28680;45.642;13.756;2023-06-10T00:12:06;100826.72;;;23.21;100.00
35647;BME280;28680;45.642;13.756;2023-06-10T00:14:39;100817.03;;;23.13;100.00
35647;BME280;28680;45.642;13.756;2023-06-10T00:17:06;100819.06;;;23.11;100.00
35647;BME280;28680;45.642;13.756;2023-06-10T00:19:34;100815.31;;;22.99;100.00
35647;BME280;28680;45.642;13.756;2023-06-10T00:22:00;100819.63;;;23.00;100.00
35647;BME280;28680;45.642;13.756;2023-06-10T00:24:26;100820.66;;;22.99;100.00
35647;BME280;28680;45.642;13.756;2023-06-10T00:26:52;100821.94;;;23.03;100.00
35647;BME280;28680;45.642;13.756;2023-06-10T00:29:19;100820.09;;;23.04;100.00
35647;BME280;28680;45.642;13.756;2023-06-10T00:31:45;100817.78;;;23.01;100.00
35647;BME280;28680;45.642;13.756;2023-06-10T00:34:12;100809.75;;;23.01;100.00
35647;BME280;28680;45.642;13.756;2023-06-10T00:36:38;100805.03;;;23.03;100.00
35647;BME280;28680;45.642;13.756;2023-06-10T00:39:04;100811.59;;;22.93;100.00
35647;BME280;28680;45.642;13.756;2023-06-10T00:41:30;100806.81;;;22.89;100.00
35647;BME280;28680;45.642;13.756;2023-06-10T00:43:56;100812.97;;;22.83;100.00
35647;BME280;28680;45.642;13.756;2023-06-10T00:46:24;100807.81;;;22.74;100.00
35647;BME280;28680;45.642;13.756;2023-06-10T00:48:51;100802.44;;;22.74;100.00
35647;BME280;28680;45.642;13.756;2023-06-10T00:51:18;100797.53;;;22.78;100.00
35647;BME280;28680;45.642;13.756;2023-06-10T00:53:45;100805.34;;;22.80;100.00
35647;BME280;28680;45.642;13.756;2023-06-10T00:56:11;100801.44;;;22.82;100.00
35647;BME280;28680;45.642;13.756;2023-06-10T00:58:38;100798.16;;;22.80;100.00
35647;BME280;28680;45.642;13.756;2023-06-10T01:01:04;100794.25;;;22.83;100.00
35647;BME280;28680;45.642;13.756;2023-06-10T01:03:30;100786.78;;;22.71;100.00
35647;BME280;28680;45.642;13.756;2023-06-10T01:11:35;100782.00;;;22.60;100.00
35647;BME280;28680;45.642;13.756;2023-06-10T01:14:04;100788.16;;;22.54;100.00
35647;BME280;28680;45.642;13.756;2023-06-10T01:16:31;100779.50;;;22.52;100.00
35647;BME280;28680;45.642;13.756;2023-06-10T01:18:56;100786.03;;;22.43;100.00
35647;BME280;28680;45.642;13.756;2023-06-10T01:21:23;100791.72;;;22.33;100.00
35647;BME280;28680;45.642;13.756;2023-06-10T01:23:51;100788.00;;;22.27;100.00
35647;BME280;28680;45.642;13.756;2023-06-10T01:26:22;100782.03;;;22.32;100.00
35647;BME280;28680;45.642;13.756;2023-06-10T01:28:58;100782.75;;;22.19;100.00
35647;BME280;28680;45.642;13.756;2023-06-10T01:31:48;100774.97;;;22.24;100.00
35647;BME280;28680;45.642;13.756;2023-06-10T01:34:18;100772.78;;;22.28;100.00
35647;BME280;28680;45.642;13.756;2023-06-10T01:36:48;100766.41;;;22.29;100.00
35647;BME280;28680;45.642;13.756;2023-06-10T01:39:21;100772.38;;;22.31;100.00
35647;BME280;28680;45.642;13.756;2023-06-10T01:41:49;100768.88;;;22.30;100.00
35647;BME280;28680;45.642;13.756;2023-06-10T01:44:20;100772.59;;;22.36;100.00
35647;BME280;28680;45.642;13.756;2023-06-10T01:46:46;100774.22;;;22.30;100.00
35647;BME280;28680;45.642;13.756;2023-06-10T01:49:12;100778.56;;;22.31;100.00
35647;BME280;28680;45.642;13.756;2023-06-10T01:51:39;100773.78;;;22.27;100.00
35647;BME280;28680;45.642;13.756;2023-06-10T01:54:05;100774.94;;;22.17;100.00
35647;BME280;28680;45.642;13.756;2023-06-10T01:56:32;100776.75;;;22.10;100.00
35647;BME280;28680;45.642;13.756;2023-06-10T01:58:58;100782.28;;;22.09;100.00
35647;BME280;28680;45.642;13.756;2023-06-10T02:01:29;100777.72;;;22.03;100.00
35647;BME280;28680;45.642;13.756;2023-06-10T02:03:55;100773.81;;;22.05;100.00
35647;BME280;28680;45.642;13.756;2023-06-10T02:06:21;100774.44;;;22.07;100.00
35647;BME280;28680;45.642;13.756;2023-06-10T02:08:47;100773.38;;;22.02;100.00
35647;BME280;28680;45.642;13.756;2023-06-10T02:11:12;100779.53;;;22.02;100.00
35647;BME280;28680;45.642;13.756;2023-06-10T02:13:38;100775.69;;;22.05;100.00
35647;BME280;28680;45.642;13.756;2023-06-10T02:16:04;100768.84;;;22.02;100.00
35647;BME280;28680;45.642;13.756;2023-06-10T02:18:33;100774.44;;;22.07;100.00
35647;BME280;28680;45.642;13.756;2023-06-10T02:20:59;100777.31;;;22.06;100.00
35647;BME280;28680;45.642;13.756;2023-06-10T02:23:25;100776.50;;;22.05;100.00
35647;BME280;28680;45.642;13.756;2023-06-10T02:25:51;100773.25;;;22.10;100.00
35647;BME280;28680;45.642;13.756;2023-06-10T02:28:16;100775.72;;;22.11;100.00
35647;BME280;28680;45.642;13.756;2023-06-10T02:30:43;100776.97;;;22.15;100.00
35647;BME280;28680;45.642;13.756;2023-06-10T02:33:08;100776.16;;;22.15;100.00
35647;BME280;28680;45.642;13.756;2023-06-10T02:35:40;100781.69;;;22.13;100.00
35647;BME280;28680;45.642;13.756;2023-06-10T02:38:06;100781.28;;;22.10;100.00
35647;BME280;28680;45.642;13.756;2023-06-10T02:40:32;100772.84;;;22.13;100.00
35647;BME280;28680;45.642;13.756;2023-06-10T02:42:58;100775.97;;;22.16;100.00
35647;BME280;28680;45.642;13.756;2023-06-10T02:45:24;100774.88;;;22.04;100.00
35647;BME280;28680;45.642;13.756;2023-06-10T02:47:50;100780.97;;;21.98;100.00
35647;BME280;28680;45.642;13.756;2023-06-10T02:50:16;100786.47;;;21.90;100.00
35647;BME280;28680;45.642;13.756;2023-06-10T02:52:43;100793.97;;;21.79;100.00
35647;BME280;28680;45.642;13.756;2023-06-10T02:55:09;100793.41;;;21.84;100.00
35647;BME280;28680;45.642;13.756;2023-06-10T02:57:35;100794.38;;;21.76;100.00
35647;BME280;28680;45.642;13.756;2023-06-10T03:00:01;100803.00;;;21.78;100.00
35647;BME280;28680;45.642;13.756;2023-06-10T03:02:28;100796.59;;;21.73;100.00
35647;BME280;28680;45.642;13.756;2023-06-10T03:04:58;100797.84;;;21.77;100.00
35647;BME280;28680;45.642;13.756;2023-06-10T03:07:24;100790.88;;;21.76;100.00
35647;BME280;28680;45.642;13.756;2023-06-10T03:09:50;100789.84;;;21.77;100.00
35647;BME280;28680;45.642;13.756;2023-06-10T03:12:16;100784.94;;;21.80;100.00
35647;BME280;28680;45.642;13.756;2023-06-10T03:14:42;100782.47;;;21.79;100.00
35647;BME280;28680;45.642;13.756;2023-06-10T03:17:08;100783.50;;;21.78;100.00
35647;BME280;28680;45.642;13.756;2023-06-10T03:19:36;100771.41;;;21.82;100.00
35647;BME280;28680;45.642;13.756;2023-06-10T03:22:17;100770.38;;;21.83;100.00
35647;BME280;28680;45.642;13.756;2023-06-10T03:24:43;100768.97;;;21.87;100.00
35647;BME280;28680;45.642;13.756;2023-06-10T03:27:12;100766.09;;;21.89;100.00
35647;BME280;28680;45.642;13.756;2023-06-10T03:29:39;100771.25;;;21.90;100.00
35647;BME280;28680;45.642;13.756;2023-06-10T03:32:05;100766.94;;;21.89;100.00
35647;BME280;28680;45.642;13.756;2023-06-10T03:34:31;100766.69;;;21.84;100.00
35647;BME280;28680;45.642;13.756;2023-06-10T03:36:58;100770.81;;;21.87;100.00
35647;BME280;28680;45.642;13.756;2023-06-10T03:39:25;100765.66;;;21.85;100.00
35647;BME280;28680;45.642;13.756;2023-06-10T03:41:51;100770.63;;;21.88;100.00
35647;BME280;28680;45.642;13.756;2023-06-10T03:44:17;100765.72;;;21.92;100.00
35647;BME280;28680;45.642;13.756;2023-06-10T03:46:43;100762.03;;;21.93;100.00
35647;BME280;28680;45.642;13.756;2023-06-10T03:49:08;100757.50;;;21.93;100.00
35647;BME280;28680;45.642;13.756;2023-06-10T03:51:35;100773.03;;;21.83;100.00
35647;BME280;28680;45.642;13.756;2023-06-10T03:54:02;100774.63;;;21.77;100.00
35647;BME280;28680;45.642;13.756;2023-06-10T03:56:28;100780.81;;;21.78;100.00
35647;BME280;28680;45.642;13.756;2023-06-10T03:58:54;100779.41;;;21.82;100.00
35647;BME280;28680;45.642;13.756;2023-06-10T04:01:21;100770.16;;;21.85;100.00
35647;BME280;28680;45.642;13.756;2023-06-10T04:03:48;100765.72;;;21.92;100.00
35647;BME280;28680;45.642;13.756;2023-06-10T04:06:17;100769.38;;;21.91;100.00
35647;BME280;28680;45.642;13.756;2023-06-10T04:08:42;100760.19;;;21.93;100.00
35647;BME280;28680;45.642;13.756;2023-06-10T04:11:09;100775.19;;;21.94;100.00
35647;BME280;28680;45.642;13.756;2023-06-10T04:13:35;100766.97;;;21.96;100.00
35647;BME280;28680;45.642;13.756;2023-06-10T04:16:02;100770.88;;;21.93;100.00
35647;BME280;28680;45.642;13.756;2023-06-10T04:18:28;100775.53;;;21.85;100.00
35647;BME280;28680;45.642;13.756;2023-06-10T04:20:54;100762.34;;;21.83;100.00
35647;BME280;28680;45.642;13.756;2023-06-10T04:23:21;100762.97;;;21.85;100.00
35647;BME280;28680;45.642;13.756;2023-06-10T04:25:46;100758.69;;;21.91;100.00
35647;BME280;28680;45.642;13.756;2023-06-10T04:28:13;100764.50;;;21.94;100.00
35647;BME280;28680;45.642;13.756;2023-06-10T04:30:39;100755.66;;;21.94;100.00
35647;BME280;28680;45.642;13.756;2023-06-10T04:33:07;100761.16;;;21.86;100.00
35647;BME280;28680;45.642;13.756;2023-06-10T04:35:34;100754.41;;;21.90;100.00
35647;BME280;28680;45.642;13.756;2023-06-10T04:38:00;100749.06;;;21.90;100.00
35647;BME280;28680;45.642;13.756;2023-06-10T04:40:28;100755.66;;;21.94;100.00
35647;BME280;28680;45.642;13.756;2023-06-10T04:42:54;100758.13;;;21.95;100.00
35647;BME280;28680;45.642;13.756;2023-06-10T04:45:20;100756.63;;;21.86;100.00
35647;BME280;28680;45.642;13.756;2023-06-10T04:47:45;100760.13;;;21.87;100.00
35647;BME280;28680;45.642;13.756;2023-06-10T04:50:11;100751.28;;;21.86;100.00
35647;BME280;28680;45.642;13.756;2023-06-10T04:52:37;100760.31;;;21.85;100.00
35647;BME280;28680;45.642;13.756;2023-06-10T04:55:03;100757.44;;;21.87;100.00
35647;BME280;28680;45.642;13.756;2023-06-10T04:57:29;100757.50;;;21.93;100.00
35647;BME280;28680;45.642;13.756;2023-06-10T04:59:55;100751.75;;;21.96;100.00
35647;BME280;28680;45.642;13.756;2023-06-10T05:02:21;100757.25;;;21.88;100.00
35647;BME280;28680;45.642;13.756;2023-06-10T05:04:47;100754.66;;;21.95;100.00
35647;BME280;28680;45.642;13.756;2023-06-10T05:07:13;100754.25;;;21.98;100.00
35647;BME280;28680;45.642;13.756;2023-06-10T05:09:39;100753.47;;;22.04;100.00
35647;BME280;28680;45.642;13.756;2023-06-10T05:12:05;100746.53;;;22.10;100.00
35647;BME280;28680;45.642;13.756;2023-06-10T05:14:32;100746.13;;;22.13;100.00
35647;BME280;28680;45.642;13.756;2023-06-10T05:16:58;100748.63;;;22.21;100.00
35647;BME280;28680;45.642;13.756;2023-06-10T05:19:24;100745.41;;;22.26;100.00
35647;BME280;28680;45.642;13.756;2023-06-10T05:21:49;100745.44;;;22.32;100.00
35647;BME280;28680;45.642;13.756;2023-06-10T05:24:15;100742.56;;;22.34;100.00
35647;BME280;28680;45.642;13.756;2023-06-10T05:26:41;100744.03;;;22.36;100.00
35647;BME280;28680;45.642;13.756;2023-06-10T05:29:07;100745.69;;;22.37;100.00
35647;BME280;28680;45.642;13.756;2023-06-10T05:31:34;100740.75;;;22.41;100.00
35647;BME280;28680;45.642;13.756;2023-06-10T05:34:00;100740.59;;;22.49;100.00
35647;BME280;28680;45.642;13.756;2023-06-10T05:36:26;100741.63;;;22.48;100.00
35647;BME280;28680;45.642;13.756;2023-06-10T05:38:53;100744.75;;;22.58;100.00
35647;BME280;28680;45.642;13.756;2023-06-10T05:41:19;100753.03;;;22.70;100.00
35647;BME280;28680;45.642;13.756;2023-06-10T05:43:46;100758.88;;;22.87;100.00
35647;BME280;28680;45.642;13.756;2023-06-10T05:46:12;100755.38;;;23.00;100.00
35647;BME280;28680;45.642;13.756;2023-06-10T05:48:38;100747.41;;;23.07;100.00
35647;BME280;28680;45.642;13.756;2023-06-10T05:51:04;100748.50;;;23.26;100.00
35647;BME280;28680;45.642;13.756;2023-06-10T05:53:30;100754.09;;;23.44;100.00
35647;BME280;28680;45.642;13.756;2023-06-10T05:55:56;100754.91;;;23.71;100.00
35647;BME280;28680;45.642;13.756;2023-06-10T05:58:23;100756.97;;;23.69;100.00
35647;BME280;28680;45.642;13.756;2023-06-10T06:00:50;100747.06;;;23.97;100.00
35647;BME280;28680;45.642;13.756;2023-06-10T06:03:16;100754.72;;;24.00;100.00
35647;BME280;28680;45.642;13.756;2023-06-10T06:05:42;100755.56;;;23.93;100.00
35647;BME280;28680;45.642;13.756;2023-06-10T06:08:09;100764.00;;;23.84;100.00
35647;BME280;28680;45.642;13.756;2023-06-10T06:10:35;100763.78;;;23.85;100.00
35647;BME280;28680;45.642;13.756;2023-06-10T06:13:02;100770.19;;;23.84;100.00
35647;BME280;28680;45.642;13.756;2023-06-10T06:15:28;100773.66;;;23.78;100.00
35647;BME280;28680;45.642;13.756;2023-06-10T06:17:54;100768.53;;;23.90;100.00
35647;BME280;28680;45.642;13.756;2023-06-10T06:20:22;100781.09;;;23.69;100.00
35647;BME280;28680;45.642;13.756;2023-06-10T06:22:48;100777.56;;;23.62;100.00
35647;BME280;28680;45.642;13.756;2023-06-10T06:25:14;100779.03;;;23.78;100.00
35647;BME280;28680;45.642;13.756;2023-06-10T06:27:40;100781.94;;;23.83;100.00
35647;BME280;28680;45.642;13.756;2023-06-10T06:30:07;100782.53;;;23.85;100.00
35647;BME280;28680;45.642;13.756;2023-06-10T06:32:33;100781.72;;;23.78;100.00
35647;BME280;28680;45.642;13.756;2023-06-10T06:34:59;100781.72;;;23.85;100.00
35647;BME280;28680;45.642;13.756;2023-06-10T06:37:25;100782.16;;;23.95;100.00
35647;BME280;28680;45.642;13.756;2023-06-10T06:39:53;100783.59;;;23.84;100.00
35647;BME280;28680;45.642;13.756;2023-06-10T06:42:19;100785.84;;;23.94;100.00
35647;BME280;28680;45.642;13.756;2023-06-10T06:44:46;100783.97;;;23.94;100.00
35647;BME280;28680;45.642;13.756;2023-06-10T06:47:13;100777.59;;;24.02;100.00
35647;BME280;28680;45.642;13.756;2023-06-10T06:49:39;100778.41;;;24.09;100.00
35647;BME280;28680;45.642;13.756;2023-06-10T06:52:05;100769.53;;;24.02;100.00
35647;BME280;28680;45.642;13.756;2023-06-10T06:54:31;100773.25;;;24.08;100.00
35647;BME280;28680;45.642;13.756;2023-06-10T06:56:57;100775.50;;;24.18;100.00
35647;BME280;28680;45.642;13.756;2023-06-10T06:59:23;100765.78;;;24.23;100.00
35647;BME280;28680;45.642;13.756;2023-06-10T07:01:51;100763.50;;;24.33;100.00
35647;BME280;28680;45.642;13.756;2023-06-10T07:04:19;100771.91;;;24.50;100.00
35647;BME280;28680;45.642;13.756;2023-06-10T07:06:47;100782.22;;;24.60;100.00
35647;BME280;28680;45.642;13.756;2023-06-10T07:09:13;100778.25;;;24.76;100.00
35647;BME280;28680;45.642;13.756;2023-06-10T07:11:39;100787.94;;;24.77;100.00
35647;BME280;28680;45.642;13.756;2023-06-10T07:14:06;100783.78;;;24.88;100.00
35647;BME280;28680;45.642;13.756;2023-06-10T07:16:32;100779.44;;;24.94;100.00
35647;BME280;28680;45.642;13.756;2023-06-10T07:18:58;100784.78;;;24.94;100.00
35647;BME280;28680;45.642;13.756;2023-06-10T07:21:24;100773.59;;;24.97;100.00
35647;BME280;28680;45.642;13.756;2023-06-10T07:23:50;100782.31;;;24.92;100.00
35647;BME280;28680;45.642;13.756;2023-06-10T07:26:19;100769.91;;;24.91;100.00
35647;BME280;28680;45.642;13.756;2023-06-10T07:28:45;100772.53;;;25.04;100.00
35647;BME280;28680;45.642;13.756;2023-06-10T07:31:11;100770.25;;;25.08;100.00
35647;BME280;28680;45.642;13.756;2023-06-10T07:33:37;100764.03;;;25.14;100.00
35647;BME280;28680;45.642;13.756;2023-06-10T07:36:08;100757.66;;;25.08;100.00
35647;BME280;28680;45.642;13.756;2023-06-10T07:38:34;100765.25;;;25.18;100.00
35647;BME280;28680;45.642;13.756;2023-06-10T07:41:00;100762.72;;;25.30;100.00
35647;BME280;28680;45.642;13.756;2023-06-10T07:43:26;100767.88;;;25.32;100.00
35647;BME280;28680;45.642;13.756;2023-06-10T07:45:52;100768.59;;;25.45;100.00
35647;BME280;28680;45.642;13.756;2023-06-10T07:48:18;100769.66;;;25.44;100.00
35647;BME280;28680;45.642;13.756;2023-06-10T07:50:44;100773.16;;;25.45;100.00
35647;BME280;28680;45.642;13.756;2023-06-10T07:53:10;100768.38;;;25.47;100.00
35647;BME280;28680;45.642;13.756;2023-06-10T07:55:36;100769.91;;;25.61;100.00
35647;BME280;28680;45.642;13.756;2023-06-10T07:58:02;100773.69;;;25.54;100.00
35647;BME280;28680;45.642;13.756;2023-06-10T08:00:28;100776.75;;;25.57;100.00
35647;BME280;28680;45.642;13.756;2023-06-10T08:02:53;100774.81;;;25.71;100.00
35647;BME280;28680;45.642;13.756;2023-06-10T08:05:19;100777.03;;;25.74;100.00
35647;BME280;28680;45.642;13.756;2023-06-10T08:07:46;100773.31;;;25.75;100.00
35647;BME280;28680;45.642;13.756;2023-06-10T08:10:12;100772.28;;;25.76;100.00
35647;BME280;28680;45.642;13.756;2023-06-10T08:12:38;100776.31;;;25.85;100.00
35647;BME280;28680;45.642;13.756;2023-06-10T08:15:04;100771.75;;;25.93;100.00
35647;BME280;28680;45.642;13.756;2023-06-10T08:17:31;100775.47;;;25.92;100.00
35647;BME280;28680;45.642;13.756;2023-06-10T08:19:57;100773.41;;;25.87;100.00
35647;BME280;28680;45.642;13.756;2023-06-10T08:22:26;100771.69;;;25.99;100.00
35647;BME280;28680;45.642;13.756;2023-06-10T08:24:54;100769.22;;;25.98;100.00
35647;BME280;28680;45.642;13.756;2023-06-10T08:27:21;100768.03;;;25.94;100.00
35647;BME280;28680;45.642;13.756;2023-06-10T08:29:47;100772.50;;;26.00;100.00
35647;BME280;28680;45.642;13.756;2023-06-10T08:32:13;100776.34;;;26.11;100.00
35647;BME280;28680;45.642;13.756;2023-06-10T08:34:39;100769.59;;;26.20;100.00
35647;BME280;28680;45.642;13.756;2023-06-10T08:37:06;100770.47;;;26.20;100.00
35647;BME280;28680;45.642;13.756;2023-06-10T08:39:32;100770.72;;;26.12;100.00
35647;BME280;28680;45.642;13.756;2023-06-10T08:44:46;100774.13;;;26.26;100.00
35647;BME280;28680;45.642;13.756;2023-06-10T08:47:16;100769.41;;;26.21;100.00
35647;BME280;28680;45.642;13.756;2023-06-10T08:49:47;100770.00;;;26.23;100.00
35647;BME280;28680;45.642;13.756;2023-06-10T08:52:18;100772.53;;;26.37;100.00
35647;BME280;28680;45.642;13.756;2023-06-10T08:55:10;100768.59;;;26.39;100.00
35647;BME280;28680;45.642;13.756;2023-06-10T08:57:36;100768.59;;;26.39;100.00
35647;BME280;28680;45.642;13.756;2023-06-10T09:00:03;100761.78;;;26.37;100.00
35647;BME280;28680;45.642;13.756;2023-06-10T09:02:32;100767.09;;;26.43;100.00
35647;BME280;28680;45.642;13.756;2023-06-10T09:05:01;100770.75;;;26.49;100.00
35647;BME280;28680;45.642;13.756;2023-06-10T09:07:30;100768.16;;;26.61;100.00
35647;BME280;28680;45.642;13.756;2023-06-10T09:09:57;100768.91;;;26.68;100.00
35647;BME280;28680;45.642;13.756;2023-06-10T09:12:24;100764.16;;;26.82;100.00
35647;BME280;28680;45.642;13.756;2023-06-10T09:14:50;100771.16;;;27.01;100.00
35647;BME280;28680;45.642;13.756;2023-06-10T09:17:17;100772.94;;;27.08;100.00
35647;BME280;28680;45.642;13.756;2023-06-10T09:19:44;100764.94;;;27.01;100.00
35647;BME280;28680;45.642;13.756;2023-06-10T09:22:11;100770.03;;;27.09;100.00
35647;BME280;28680;45.642;13.756;2023-06-10T09:24:37;100768.16;;;27.21;100.00
35647;BME280;28680;45.642;13.756;2023-06-10T09:27:08;100768.13;;;27.40;100.00
35647;BME280;28680;45.642;13.756;2023-06-10T09:29:54;100772.97;;;27.50;100.00
35647;BME280;28680;45.642;13.756;2023-06-10T09:32:24;100767.72;;;27.78;100.00
35647;BME280;28680;45.642;13.756;2023-06-10T09:34:50;100769.81;;;27.76;100.00
35647;BME280;28680;45.642;13.756;2023-06-10T09:37:23;100766.03;;;27.54;100.00
35647;BME280;28680;45.642;13.756;2023-06-10T09:40:07;100775.06;;;27.48;100.00
35647;BME280;28680;45.642;13.756;2023-06-10T09:42:36;100770.41;;;27.55;100.00
35647;BME280;28680;45.642;13.756;2023-06-10T09:45:06;100776.25;;;27.52;100.00
35647;BME280;28680;45.642;13.756;2023-06-10T09:47:33;100777.41;;;27.56;100.00
35647;BME280;28680;45.642;13.756;2023-06-10T09:49:59;100782.34;;;27.71;100.00
35647;BME280;28680;45.642;13.756;2023-06-10T09:52:28;100781.25;;;27.90;100.00
35647;BME280;28680;45.642;13.756;2023-06-10T09:55:00;100776.56;;;28.09;100.00
35647;BME280;28680;45.642;13.756;2023-06-10T09:57:31;100772.31;;;28.13;100.00
35647;BME280;28680;45.642;13.756;2023-06-10T10:00:11;100767.50;;;28.27;100.00
35647;BME280;28680;45.642;13.756;2023-06-10T10:02:52;100761.16;;;28.22;100.00
35647;BME280;28680;45.642;13.756;2023-06-10T10:05:21;100761.84;;;28.29;100.00
35647;BME280;28680;45.642;13.756;2023-06-10T10:07:48;100758.19;;;28.35;100.00
35647;BME280;28680;45.642;13.756;2023-06-10T10:10:16;100757.56;;;28.68;100.00
35647;BME280;28680;45.642;13.756;2023-06-10T10:12:43;100755.78;;;28.74;100.00
35647;BME280;28680;45.642;13.756;2023-06-10T10:15:12;100745.75;;;28.86;100.00
35647;BME280;28680;45.642;13.756;2023-06-10T10:17:53;100744.78;;;28.92;100.00
35647;BME280;28680;45.642;13.756;2023-06-10T10:20:30;100739.69;;;28.96;100.00
35647;BME280;28680;45.642;13.756;2023-06-10T10:22:58;100735.56;;;29.05;100.00
35647;BME280;28680;45.642;13.756;2023-06-10T10:25:29;100741.47;;;29.02;100.00
35647;BME280;28680;45.642;13.756;2023-06-10T10:28:12;100735.56;;;29.05;100.00
35647;BME280;28680;45.642;13.756;2023-06-10T10:30:53;100735.81;;;29.04;100.00
35647;BME280;28680;45.642;13.756;2023-06-10T10:33:27;100735.69;;;29.27;100.00
35647;BME280;28680;45.642;13.756;2023-06-10T10:35:57;100730.63;;;29.48;100.00
35647;BME280;28680;45.642;13.756;2023-06-10T10:38:24;100725.56;;;29.51;100.00
35647;BME280;28680;45.642;13.756;2023-06-10T10:40:51;100721.88;;;29.74;100.00
35647;BME280;28680;45.642;13.756;2023-06-10T10:43:18;100721.72;;;30.03;100.00
35647;BME280;28680;45.642;13.756;2023-06-10T10:45:46;100732.06;;;30.06;100.00
35647;BME280;28680;45.642;13.756;2023-06-10T10:48:23;100732.31;;;30.27;100.00
35647;BME280;28680;45.642;13.756;2023-06-10T10:50:59;100732.97;;;29.95;100.00
35647;BME280;28680;45.642;13.756;2023-06-10T10:53:25;100716.94;;;30.10;100.00
35647;BME280;28680;45.642;13.756;2023-06-10T10:56:15;100718.94;;;30.37;100.00
35647;BME280;28680;45.642;13.756;2023-06-10T10:59:04;100717.56;;;30.35;100.00
35647;BME280;28680;45.642;13.756;2023-06-10T11:01:43;100719.28;;;30.24;100.00
35647;BME280;28680;45.642;13.756;2023-06-10T11:04:12;100706.16;;;30.33;100.00
35647;BME280;28680;45.642;13.756;2023-06-10T11:06:38;100704.91;;;30.40;100.00
35647;BME280;28680;45.642;13.756;2023-06-10T11:09:27;100697.19;;;30.32;100.00
35647;BME280;28680;45.642;13.756;2023-06-10T11:11:57;100698.47;;;30.74;100.00
35647;BME280;28680;45.642;13.756;2023-06-10T11:14:30;100701.16;;;30.46;100.00
35647;BME280;28680;45.642;13.756;2023-06-10T11:16:58;100702.13;;;30.35;100.00
35647;BME280;28680;45.642;13.756;2023-06-10T11:19:38;100688.09;;;30.38;100.00
35647;BME280;28680;45.642;13.756;2023-06-10T11:22:07;100680.22;;;30.64;100.00
35647;BME280;28680;45.642;13.756;2023-06-10T11:24:33;100679.06;;;30.82;100.00
35647;BME280;28680;45.642;13.756;2023-06-10T11:27:22;100684.16;;;30.78;100.00
35647;BME280;28680;45.642;13.756;2023-06-10T11:30:21;100698.94;;;30.93;100.00
35647;BME280;28680;45.642;13.756;2023-06-10T11:32:51;100705.75;;;30.95;100.00
35647;BME280;28680;45.642;13.756;2023-06-10T11:35:19;100704.16;;;30.99;100.00
35647;BME280;28680;45.642;13.756;2023-06-10T11:37:47;100701.75;;;30.76;100.00
35647;BME280;28680;45.642;13.756;2023-06-10T11:40:13;100708.72;;;30.94;100.00
35647;BME280;28680;45.642;13.756;2023-06-10T11:42:41;100712.56;;;30.98;100.00
35647;BME280;28680;45.642;13.756;2023-06-10T11:45:08;100708.53;;;30.78;100.00
35647;BME280;28680;45.642;13.756;2023-06-10T11:47:34;100712.31;;;30.77;100.00
35647;BME280;28680;45.642;13.756;2023-06-10T11:50:00;100703.00;;;30.90;100.00
35647;BME280;28680;45.642;13.756;2023-06-10T11:52:30;100697.72;;;31.05;100.00
35647;BME280;28680;45.642;13.756;2023-06-10T11:55:04;100707.88;;;31.20;100.00
35647;BME280;28680;45.642;13.756;2023-06-10T11:57:34;100707.19;;;31.35;100.00
35647;BME280;28680;45.642;13.756;2023-06-10T12:00:08;100712.19;;;31.48;100.00
35647;BME280;28680;45.642;13.756;2023-06-10T12:02:34;100720.91;;;31.23;100.00
35647;BME280;28680;45.642;13.756;2023-06-10T12:05:13;100726.78;;;31.15;100.00
35647;BME280;28680;45.642;13.756;2023-06-10T12:07:39;100728.63;;;31.37;100.00
35647;BME280;28680;45.642;13.756;2023-06-10T12:10:05;100728.56;;;31.32;100.00
35647;BME280;28680;45.642;13.756;2023-06-10T12:12:35;100727.03;;;30.86;100.00
35647;BME280;28680;45.642;13.756;2023-06-10T12:15:02;100732.94;;;31.38;100.00
35647;BME280;28680;45.642;13.756;2023-06-10T12:19:57;100742.09;;;30.50;100.00
35647;BME280;28680;45.642;13.756;2023-06-10T12:22:23;100744.81;;;30.50;100.00
35647;BME280;28680;45.642;13.756;2023-06-10T12:25:01;100757.16;;;30.41;100.00
35647;BME280;28680;45.642;13.756;2023-06-10T12:27:29;100770.69;;;29.85;100.00
35647;BME280;28680;45.642;13.756;2023-06-10T12:29:57;100778.13;;;29.27;100.00
35647;BME280;28680;45.642;13.756;2023-06-10T12:32:47;100784.13;;;28.88;100.00
35647;BME280;28680;45.642;13.756;2023-06-10T12:35:17;100777.31;;;26.90;100.00
35647;BME280;28680;45.642;13.756;2023-06-10T12:40:34;100794.97;;;25.55;100.00
35647;BME280;28680;45.642;13.756;2023-06-10T12:43:01;100781.31;;;25.57;100.00
35647;BME280;28680;45.642;13.756;2023-06-10T12:45:32;100775.53;;;25.60;100.00
35647;BME280;28680;45.642;13.756;2023-06-10T12:48:09;100780.94;;;25.78;100.00
35647;BME280;28680;45.642;13.756;2023-06-10T12:50:42;100785.44;;;25.59;100.00